sensor_id;sensor_type;location;lat;lon;timestamp;temperature;humidity
36800;DHT22;22752;51.960;5.886;2023-05-07T00:00:00;15.80;99.90
36800;DHT22;22752;51.960;5.886;2023-05-07T00:02:25;15.80;99.90
36800;DHT22;22752;51.960;5.886;2023-05-07T00:04:51;15.80;99.90
36800;DHT22;22752;51.960;5.886;2023-05-07T00:07:17;15.80;99.90
36800;DHT22;22752;51.960;5.886;2023-05-07T00:09:43;15.80;99.90
36800;DHT22;22752;51.960;5.886;2023-05-07T00:12:08;15.80;99.90
36800;DHT22;22752;51.960;5.886;2023-05-07T00:14:34;15.80;99.90
36800;DHT22;22752;51.960;5.886;2023-05-07T00:17:00;15.80;99.90
36800;DHT22;22752;51.960;5.886;2023-05-07T00:19:25;15.70;99.90
36800;DHT22;22752;51.960;5.886;2023-05-07T00:21:51;15.70;99.90
36800;DHT22;22752;51.960;5.886;2023-05-07T00:24:19;15.70;99.90
36800;DHT22;22752;51.960;5.886;2023-05-07T00:26:44;15.60;99.90
36800;DHT22;22752;51.960;5.886;2023-05-07T00:29:10;15.60;99.90
36800;DHT22;22752;51.960;5.886;2023-05-07T00:31:36;15.50;99.90
36800;DHT22;22752;51.960;5.886;2023-05-07T00:34:01;15.50;99.90
36800;DHT22;22752;51.960;5.886;2023-05-07T00:36:27;15.40;99.90
36800;DHT22;22752;51.960;5.886;2023-05-07T00:38:54;15.40;99.90
36800;DHT22;22752;51.960;5.886;2023-05-07T00:41:20;15.40;99.90
36800;DHT22;22752;51.960;5.886;2023-05-07T00:43:46;15.40;99.90
36800;DHT22;22752;51.960;5.886;2023-05-07T00:46:13;15.40;99.90
36800;DHT22;22752;51.960;5.886;2023-05-07T00:48:39;15.30;99.90
36800;DHT22;22752;51.960;5.886;2023-05-07T00:51:05;15.30;99.90
36800;DHT22;22752;51.960;5.886;2023-05-07T00:53:31;15.20;99.90
36800;DHT22;22752;51.960;5.886;2023-05-07T00:55:57;15.20;99.90
36800;DHT22;22752;51.960;5.886;2023-05-07T00:58:23;15.10;99.90
36800;DHT22;22752;51.960;5.886;2023-05-07T01:00:50;15.10;99.90
36800;DHT22;22752;51.960;5.886;2023-05-07T01:03:16;15.10;99.90
36800;DHT22;22752;51.960;5.886;2023-05-07T01:05:42;15.10;99.90
36800;DHT22;22752;51.960;5.886;2023-05-07T01:08:10;15.00;99.90
36800;DHT22;22752;51.960;5.886;2023-05-07T01:10:36;15.00;99.90
36800;DHT22;22752;51.960;5.886;2023-05-07T01:13:02;15.00;99.90
36800;DHT22;22752;51.960;5.886;2023-05-07T01:15:28;15.00;99.90
36800;DHT22;22752;51.960;5.886;2023-05-07T01:17:54;14.90;99.90
36800;DHT22;22752;51.960;5.886;2023-05-07T01:20:22;14.90;99.90
36800;DHT22;22752;51.960;5.886;2023-05-07T01:22:49;14.90;99.90
36800;DHT22;22752;51.960;5.886;2023-05-07T01:25:15;14.90;99.90
36800;DHT22;22752;51.960;5.886;2023-05-07T01:27:41;14.90;99.90
36800;DHT22;22752;51.960;5.886;2023-05-07T01:30:08;14.90;99.90
36800;DHT22;22752;51.960;5.886;2023-05-07T01:32:43;14.90;99.90
36800;DHT22;22752;51.960;5.886;2023-05-07T01:35:12;15.00;99.90
36800;DHT22;22752;51.960;5.886;2023-05-07T01:37:40;15.00;99.90
36800;DHT22;22752;51.960;5.886;2023-05-07T01:40:06;15.00;99.90
36800;DHT22;22752;51.960;5.886;2023-05-07T01:42:32;15.10;99.90
36800;DHT22;22752;51.960;5.886;2023-05-07T01:44:58;15.10;99.90
36800;DHT22;22752;51.960;5.886;2023-05-07T01:47:25;15.10;99.90
36800;DHT22;22752;51.960;5.886;2023-05-07T01:49:51;15.10;99.90
36800;DHT22;22752;51.960;5.886;2023-05-07T01:52:17;15.10;99.90
36800;DHT22;22752;51.960;5.886;2023-05-07T01:54:43;15.00;99.90
36800;DHT22;22752;51.960;5.886;2023-05-07T01:57:08;15.10;99.90
36800;DHT22;22752;51.960;5.886;2023-05-07T01:59:34;15.10;99.90
36800;DHT22;22752;51.960;5.886;2023-05-07T02:01:59;15.10;99.90
36800;DHT22;22752;51.960;5.886;2023-05-07T02:04:26;15.10;99.90
36800;DHT22;22752;51.960;5.886;2023-05-07T02:06:51;15.10;99.90
36800;DHT22;22752;51.960;5.886;2023-05-07T02:09:18;15.10;99.90
36800;DHT22;22752;51.960;5.886;2023-05-07T02:11:44;15.10;99.90
36800;DHT22;22752;51.960;5.886;2023-05-07T02:14:10;15.10;99.90
36800;DHT22;22752;51.960;5.886;2023-05-07T02:16:36;15.10;99.90
36800;DHT22;22752;51.960;5.886;2023-05-07T02:19:01;15.10;99.90
36800;DHT22;22752;51.960;5.886;2023-05-07T02:21:27;15.10;99.90
36800;DHT22;22752;51.960;5.886;2023-05-07T02:23:53;15.10;99.90
36800;DHT22;22752;51.960;5.886;2023-05-07T02:26:19;15.10;99.90
36800;DHT22;22752;51.960;5.886;2023-05-07T02:28:45;15.10;99.90
36800;DHT22;22752;51.960;5.886;2023-05-07T02:31:10;15.10;99.90
36800;DHT22;22752;51.960;5.886;2023-05-07T02:33:36;15.20;99.90
36800;DHT22;22752;51.960;5.886;2023-05-07T02:36:09;15.10;99.90
36800;DHT22;22752;51.960;5.886;2023-05-07T02:38:36;15.10;99.90
36800;DHT22;22752;51.960;5.886;2023-05-07T02:41:01;15.10;99.90
36800;DHT22;22752;51.960;5.886;2023-05-07T02:43:27;15.10;99.90
36800;DHT22;22752;51.960;5.886;2023-05-07T02:46:09;15.00;99.90
36800;DHT22;22752;51.960;5.886;2023-05-07T02:48:35;15.00;99.90
36800;DHT22;22752;51.960;5.886;2023-05-07T02:51:02;15.00;99.90
36800;DHT22;22752;51.960;5.886;2023-05-07T02:53:28;15.10;99.90
36800;DHT22;22752;51.960;5.886;2023-05-07T02:55:56;15.10;99.90
36800;DHT22;22752;51.960;5.886;2023-05-07T02:58:22;15.10;99.90
36800;DHT22;22752;51.960;5.886;2023-05-07T03:00:48;15.10;99.90
36800;DHT22;22752;51.960;5.886;2023-05-07T03:03:14;15.10;99.90
36800;DHT22;22752;51.960;5.886;2023-05-07T03:05:40;15.10;99.90
36800;DHT22;22752;51.960;5.886;2023-05-07T03:08:06;15.10;99.90
36800;DHT22;22752;51.960;5.886;2023-05-07T03:10:32;15.10;99.90
36800;DHT22;22752;51.960;5.886;2023-05-07T03:12:57;15.10;99.90
36800;DHT22;22752;51.960;5.886;2023-05-07T03:15:23;15.10;99.90
36800;DHT22;22752;51.960;5.886;2023-05-07T03:17:48;15.10;99.90
36800;DHT22;22752;51.960;5.886;2023-05-07T03:20:14;15.10;99.90
36800;DHT22;22752;51.960;5.886;2023-05-07T03:22:40;15.10;99.90
36800;DHT22;22752;51.960;5.886;2023-05-07T03:25:07;15.10;99.90
36800;DHT22;22752;51.960;5.886;2023-05-07T03:27:32;15.10;99.90
36800;DHT22;22752;51.960;5.886;2023-05-07T03:29:58;15.00;99.90
36800;DHT22;22752;51.960;5.886;2023-05-07T03:32:24;15.00;99.90
36800;DHT22;22752;51.960;5.886;2023-05-07T03:34:50;15.00;99.90
36800;DHT22;22752;51.960;5.886;2023-05-07T03:37:16;15.00;99.90
36800;DHT22;22752;51.960;5.886;2023-05-07T03:39:41;15.00;99.90
36800;DHT22;22752;51.960;5.886;2023-05-07T03:42:07;14.90;99.90
36800;DHT22;22752;51.960;5.886;2023-05-07T03:44:32;14.90;99.90
36800;DHT22;22752;51.960;5.886;2023-05-07T03:46:58;14.90;99.90
36800;DHT22;22752;51.960;5.886;2023-05-07T03:49:24;14.80;99.90
36800;DHT22;22752;51.960;5.886;2023-05-07T03:51:49;14.90;99.90
36800;DHT22;22752;51.960;5.886;2023-05-07T03:54:15;14.90;99.90
36800;DHT22;22752;51.960;5.886;2023-05-07T03:56:41;14.80;99.90
36800;DHT22;22752;51.960;5.886;2023-05-07T03:59:06;14.90;99.90
36800;DHT22;22752;51.960;5.886;2023-05-07T04:01:32;14.80;99.90
36800;DHT22;22752;51.960;5.886;2023-05-07T04:03:58;14.80;99.90
36800;DHT22;22752;51.960;5.886;2023-05-07T04:06:23;14.90;99.90
36800;DHT22;22752;51.960;5.886;2023-05-07T04:08:49;14.80;99.90
36800;DHT22;22752;51.960;5.886;2023-05-07T04:11:16;14.90;99.90
36800;DHT22;22752;51.960;5.886;2023-05-07T04:13:42;14.80;99.90
36800;DHT22;22752;51.960;5.886;2023-05-07T04:16:08;14.90;99.90
36800;DHT22;22752;51.960;5.886;2023-05-07T04:18:33;14.80;99.90
36800;DHT22;22752;51.960;5.886;2023-05-07T04:20:59;14.90;99.90
36800;DHT22;22752;51.960;5.886;2023-05-07T04:23:25;14.80;99.90
36800;DHT22;22752;51.960;5.886;2023-05-07T04:25:51;14.80;99.90
36800;DHT22;22752;51.960;5.886;2023-05-07T04:28:17;14.70;99.90
36800;DHT22;22752;51.960;5.886;2023-05-07T04:30:43;14.70;99.90
36800;DHT22;22752;51.960;5.886;2023-05-07T04:33:08;14.70;99.90
36800;DHT22;22752;51.960;5.886;2023-05-07T04:35:35;14.60;99.90
36800;DHT22;22752;51.960;5.886;2023-05-07T04:38:01;14.70;99.90
36800;DHT22;22752;51.960;5.886;2023-05-07T04:40:27;14.60;99.90
36800;DHT22;22752;51.960;5.886;2023-05-07T04:42:52;14.60;99.90
36800;DHT22;22752;51.960;5.886;2023-05-07T04:45:18;14.60;99.90
36800;DHT22;22752;51.960;5.886;2023-05-07T04:47:44;14.60;99.90
36800;DHT22;22752;51.960;5.886;2023-05-07T04:50:10;14.60;99.90
36800;DHT22;22752;51.960;5.886;2023-05-07T04:52:36;14.60;99.90
36800;DHT22;22752;51.960;5.886;2023-05-07T04:55:02;14.70;99.90
36800;DHT22;22752;51.960;5.886;2023-05-07T04:57:27;14.70;99.90
36800;DHT22;22752;51.960;5.886;2023-05-07T04:59:54;14.70;99.90
36800;DHT22;22752;51.960;5.886;2023-05-07T05:02:19;14.70;99.90
36800;DHT22;22752;51.960;5.886;2023-05-07T05:04:45;14.80;99.90
36800;DHT22;22752;51.960;5.886;2023-05-07T05:07:10;14.80;99.90
36800;DHT22;22752;51.960;5.886;2023-05-07T05:09:36;14.80;99.90
36800;DHT22;22752;51.960;5.886;2023-05-07T05:12:02;14.80;99.90
36800;DHT22;22752;51.960;5.886;2023-05-07T05:14:28;14.80;99.90
36800;DHT22;22752;51.960;5.886;2023-05-07T05:16:54;14.80;99.90
36800;DHT22;22752;51.960;5.886;2023-05-07T05:19:19;14.90;99.90
36800;DHT22;22752;51.960;5.886;2023-05-07T05:21:45;14.90;99.90
36800;DHT22;22752;51.960;5.886;2023-05-07T05:24:11;14.90;99.90
36800;DHT22;22752;51.960;5.886;2023-05-07T05:26:36;14.90;99.90
36800;DHT22;22752;51.960;5.886;2023-05-07T05:29:02;14.90;99.90
36800;DHT22;22752;51.960;5.886;2023-05-07T05:31:28;15.00;99.90
36800;DHT22;22752;51.960;5.886;2023-05-07T05:33:53;15.00;99.90
36800;DHT22;22752;51.960;5.886;2023-05-07T05:36:19;15.00;99.90
36800;DHT22;22752;51.960;5.886;2023-05-07T05:38:44;15.10;99.90
36800;DHT22;22752;51.960;5.886;2023-05-07T05:41:10;15.10;99.90
36800;DHT22;22752;51.960;5.886;2023-05-07T05:43:36;15.20;99.90
36800;DHT22;22752;51.960;5.886;2023-05-07T05:46:02;15.20;99.90
36800;DHT22;22752;51.960;5.886;2023-05-07T05:48:29;15.20;99.90
36800;DHT22;22752;51.960;5.886;2023-05-07T05:50:54;15.20;99.90
36800;DHT22;22752;51.960;5.886;2023-05-07T05:53:20;15.20;99.90
36800;DHT22;22752;51.960;5.886;2023-05-07T05:55:46;15.20;99.90
36800;DHT22;22752;51.960;5.886;2023-05-07T05:58:12;15.20;99.90
36800;DHT22;22752;51.960;5.886;2023-05-07T06:00:37;15.20;99.90
36800;DHT22;22752;51.960;5.886;2023-05-07T06:03:03;15.30;99.90
36800;DHT22;22752;51.960;5.886;2023-05-07T06:05:29;15.30;99.90
36800;DHT22;22752;51.960;5.886;2023-05-07T06:07:54;15.30;99.90
36800;DHT22;22752;51.960;5.886;2023-05-07T06:10:20;15.40;99.90
36800;DHT22;22752;51.960;5.886;2023-05-07T06:12:46;15.40;99.90
36800;DHT22;22752;51.960;5.886;2023-05-07T06:15:11;15.30;99.90
36800;DHT22;22752;51.960;5.886;2023-05-07T06:17:37;15.40;99.90
36800;DHT22;22752;51.960;5.886;2023-05-07T06:20:03;15.40;99.90
36800;DHT22;22752;51.960;5.886;2023-05-07T06:22:29;15.40;99.90
36800;DHT22;22752;51.960;5.886;2023-05-07T06:24:55;15.50;99.90
36800;DHT22;22752;51.960;5.886;2023-05-07T06:27:20;15.50;99.90
36800;DHT22;22752;51.960;5.886;2023-05-07T06:29:48;15.50;99.90
36800;DHT22;22752;51.960;5.886;2023-05-07T06:32:14;15.50;99.90
36800;DHT22;22752;51.960;5.886;2023-05-07T06:34:40;15.50;99.90
36800;DHT22;22752;51.960;5.886;2023-05-07T06:37:06;15.60;99.90
36800;DHT22;22752;51.960;5.886;2023-05-07T06:39:32;15.70;99.90
36800;DHT22;22752;51.960;5.886;2023-05-07T06:41:59;15.80;99.90
36800;DHT22;22752;51.960;5.886;2023-05-07T06:44:25;15.90;99.90
36800;DHT22;22752;51.960;5.886;2023-05-07T06:46:50;16.00;99.90
36800;DHT22;22752;51.960;5.886;2023-05-07T06:49:16;16.10;99.90
36800;DHT22;22752;51.960;5.886;2023-05-07T06:51:42;16.10;99.90
36800;DHT22;22752;51.960;5.886;2023-05-07T06:54:07;16.10;99.90
36800;DHT22;22752;51.960;5.886;2023-05-07T06:56:33;16.10;99.90
36800;DHT22;22752;51.960;5.886;2023-05-07T06:59:00;16.10;99.90
36800;DHT22;22752;51.960;5.886;2023-05-07T07:01:26;16.10;99.90
36800;DHT22;22752;51.960;5.886;2023-05-07T07:03:51;16.20;99.90
36800;DHT22;22752;51.960;5.886;2023-05-07T07:06:17;16.20;99.90
36800;DHT22;22752;51.960;5.886;2023-05-07T07:08:43;16.30;99.90
36800;DHT22;22752;51.960;5.886;2023-05-07T07:11:09;16.40;99.90
36800;DHT22;22752;51.960;5.886;2023-05-07T07:13:35;16.50;99.90
36800;DHT22;22752;51.960;5.886;2023-05-07T07:16:01;16.50;99.90
36800;DHT22;22752;51.960;5.886;2023-05-07T07:18:27;16.60;99.90
36800;DHT22;22752;51.960;5.886;2023-05-07T07:20:53;16.60;99.90
36800;DHT22;22752;51.960;5.886;2023-05-07T07:23:18;16.60;99.90
36800;DHT22;22752;51.960;5.886;2023-05-07T07:25:44;16.60;99.90
36800;DHT22;22752;51.960;5.886;2023-05-07T07:28:10;16.50;99.90
36800;DHT22;22752;51.960;5.886;2023-05-07T07:30:37;16.50;99.90
36800;DHT22;22752;51.960;5.886;2023-05-07T07:33:02;16.50;99.90
36800;DHT22;22752;51.960;5.886;2023-05-07T07:35:37;16.60;99.90
36800;DHT22;22752;51.960;5.886;2023-05-07T07:38:03;16.70;99.90
36800;DHT22;22752;51.960;5.886;2023-05-07T07:40:28;16.80;99.90
36800;DHT22;22752;51.960;5.886;2023-05-07T07:42:54;16.80;99.90
36800;DHT22;22752;51.960;5.886;2023-05-07T07:45:20;16.90;99.90
36800;DHT22;22752;51.960;5.886;2023-05-07T07:47:46;16.80;99.90
36800;DHT22;22752;51.960;5.886;2023-05-07T07:50:12;16.80;99.90
36800;DHT22;22752;51.960;5.886;2023-05-07T07:52:37;16.80;99.90
36800;DHT22;22752;51.960;5.886;2023-05-07T07:55:03;16.80;99.90
36800;DHT22;22752;51.960;5.886;2023-05-07T07:57:30;16.80;99.90
36800;DHT22;22752;51.960;5.886;2023-05-07T07:59:55;16.70;99.90
36800;DHT22;22752;51.960;5.886;2023-05-07T08:02:21;16.60;99.90
36800;DHT22;22752;51.960;5.886;2023-05-07T08:04:47;16.40;99.90
36800;DHT22;22752;51.960;5.886;2023-05-07T08:07:13;16.40;99.90
36800;DHT22;22752;51.960;5.886;2023-05-07T08:09:39;16.30;99.90
36800;DHT22;22752;51.960;5.886;2023-05-07T08:12:06;16.40;99.90
36800;DHT22;22752;51.960;5.886;2023-05-07T08:14:32;16.40;99.90
36800;DHT22;22752;51.960;5.886;2023-05-07T08:16:57;16.40;99.90
36800;DHT22;22752;51.960;5.886;2023-05-07T08:19:23;16.40;99.90
36800;DHT22;22752;51.960;5.886;2023-05-07T08:21:49;16.50;99.90
36800;DHT22;22752;51.960;5.886;2023-05-07T08:24:15;16.50;99.90
36800;DHT22;22752;51.960;5.886;2023-05-07T08:26:41;16.60;99.90
36800;DHT22;22752;51.960;5.886;2023-05-07T08:29:07;16.70;99.90
36800;DHT22;22752;51.960;5.886;2023-05-07T08:31:33;16.80;99.90
36800;DHT22;22752;51.960;5.886;2023-05-07T08:33:59;16.90;99.90
36800;DHT22;22752;51.960;5.886;2023-05-07T08:36:25;16.80;99.90
36800;DHT22;22752;51.960;5.886;2023-05-07T08:38:54;16.90;99.90
36800;DHT22;22752;51.960;5.886;2023-05-07T08:41:20;17.00;99.90
36800;DHT22;22752;51.960;5.886;2023-05-07T08:43:50;17.20;99.90
36800;DHT22;22752;51.960;5.886;2023-05-07T08:46:22;17.30;99.90
36800;DHT22;22752;51.960;5.886;2023-05-07T08:48:49;17.40;99.90
36800;DHT22;22752;51.960;5.886;2023-05-07T08:51:20;17.40;99.90
36800;DHT22;22752;51.960;5.886;2023-05-07T08:53:48;17.50;99.90
36800;DHT22;22752;51.960;5.886;2023-05-07T08:56:14;17.50;99.90
36800;DHT22;22752;51.960;5.886;2023-05-07T08:58:45;17.50;99.90
36800;DHT22;22752;51.960;5.886;2023-05-07T09:01:16;17.60;99.90
36800;DHT22;22752;51.960;5.886;2023-05-07T09:03:44;17.70;99.90
36800;DHT22;22752;51.960;5.886;2023-05-07T09:06:10;17.70;99.90
36800;DHT22;22752;51.960;5.886;2023-05-07T09:08:36;17.70;99.90
36800;DHT22;22752;51.960;5.886;2023-05-07T09:11:03;17.80;99.90
36800;DHT22;22752;51.960;5.886;2023-05-07T09:13:29;17.80;99.90
36800;DHT22;22752;51.960;5.886;2023-05-07T09:15:55;17.90;99.90
36800;DHT22;22752;51.960;5.886;2023-05-07T09:18:21;18.10;99.90
36800;DHT22;22752;51.960;5.886;2023-05-07T09:20:47;18.20;99.90
36800;DHT22;22752;51.960;5.886;2023-05-07T09:23:12;18.40;99.90
36800;DHT22;22752;51.960;5.886;2023-05-07T09:25:39;18.60;99.90
36800;DHT22;22752;51.960;5.886;2023-05-07T09:28:05;18.70;99.90
36800;DHT22;22752;51.960;5.886;2023-05-07T09:30:36;18.80;99.90
36800;DHT22;22752;51.960;5.886;2023-05-07T09:33:03;18.90;99.90
36800;DHT22;22752;51.960;5.886;2023-05-07T09:35:30;19.10;99.90
36800;DHT22;22752;51.960;5.886;2023-05-07T09:37:57;19.30;99.90
36800;DHT22;22752;51.960;5.886;2023-05-07T09:40:27;19.40;99.90
36800;DHT22;22752;51.960;5.886;2023-05-07T09:42:53;19.50;99.90
36800;DHT22;22752;51.960;5.886;2023-05-07T09:45:24;19.60;99.90
36800;DHT22;22752;51.960;5.886;2023-05-07T09:47:54;19.70;99.90
36800;DHT22;22752;51.960;5.886;2023-05-07T09:53:10;20.10;99.90
36800;DHT22;22752;51.960;5.886;2023-05-07T09:55:36;20.20;99.90
36800;DHT22;22752;51.960;5.886;2023-05-07T09:58:04;20.30;99.90
36800;DHT22;22752;51.960;5.886;2023-05-07T10:00:31;20.50;99.90
36800;DHT22;22752;51.960;5.886;2023-05-07T10:02:58;20.50;99.90
36800;DHT22;22752;51.960;5.886;2023-05-07T10:05:25;20.50;99.90
36800;DHT22;22752;51.960;5.886;2023-05-07T10:07:52;20.50;99.90
36800;DHT22;22752;51.960;5.886;2023-05-07T10:10:18;20.60;99.90
36800;DHT22;22752;51.960;5.886;2023-05-07T10:12:45;20.60;99.90
36800;DHT22;22752;51.960;5.886;2023-05-07T10:15:11;20.70;99.90
36800;DHT22;22752;51.960;5.886;2023-05-07T10:17:40;20.70;99.90
36800;DHT22;22752;51.960;5.886;2023-05-07T10:20:07;20.80;99.90
36800;DHT22;22752;51.960;5.886;2023-05-07T10:22:45;20.90;99.90
36800;DHT22;22752;51.960;5.886;2023-05-07T10:25:22;20.90;99.90
36800;DHT22;22752;51.960;5.886;2023-05-07T10:27:50;21.10;99.90
36800;DHT22;22752;51.960;5.886;2023-05-07T10:33:24;21.30;99.90
36800;DHT22;22752;51.960;5.886;2023-05-07T10:35:51;21.50;99.90
36800;DHT22;22752;51.960;5.886;2023-05-07T10:38:16;21.60;99.90
36800;DHT22;22752;51.960;5.886;2023-05-07T10:40:43;21.50;99.90
36800;DHT22;22752;51.960;5.886;2023-05-07T10:43:09;21.40;99.90
36800;DHT22;22752;51.960;5.886;2023-05-07T10:45:35;21.40;99.90
36800;DHT22;22752;51.960;5.886;2023-05-07T10:50:37;21.40;99.90
36800;DHT22;22752;51.960;5.886;2023-05-07T10:55:49;21.30;99.90
36800;DHT22;22752;51.960;5.886;2023-05-07T11:00:47;21.30;99.90
36800;DHT22;22752;51.960;5.886;2023-05-07T11:03:14;21.30;99.90
36800;DHT22;22752;51.960;5.886;2023-05-07T11:05:41;21.40;99.90
36800;DHT22;22752;51.960;5.886;2023-05-07T11:08:08;21.30;99.90
36800;DHT22;22752;51.960;5.886;2023-05-07T11:10:56;21.30;99.90
36800;DHT22;22752;51.960;5.886;2023-05-07T11:16:22;21.40;99.90
36800;DHT22;22752;51.960;5.886;2023-05-07T11:18:50;21.40;99.90
36800;DHT22;22752;51.960;5.886;2023-05-07T11:21:35;21.50;99.90
36800;DHT22;22752;51.960;5.886;2023-05-07T11:24:02;21.60;99.90
36800;DHT22;22752;51.960;5.886;2023-05-07T11:26:31;21.70;99.90
36800;DHT22;22752;51.960;5.886;2023-05-07T11:28:57;21.80;99.90
36800;DHT22;22752;51.960;5.886;2023-05-07T11:31:26;22.00;99.90
36800;DHT22;22752;51.960;5.886;2023-05-07T11:33:55;22.30;99.90
36800;DHT22;22752;51.960;5.886;2023-05-07T11:36:22;22.60;99.90
36800;DHT22;22752;51.960;5.886;2023-05-07T11:38:48;22.70;99.90
36800;DHT22;22752;51.960;5.886;2023-05-07T11:41:15;22.90;99.90
36800;DHT22;22752;51.960;5.886;2023-05-07T11:44:01;22.90;99.90
36800;DHT22;22752;51.960;5.886;2023-05-07T11:46:28;22.90;99.90
36800;DHT22;22752;51.960;5.886;2023-05-07T11:48:55;22.90;99.90
36800;DHT22;22752;51.960;5.886;2023-05-07T11:51:22;22.80;99.90
36800;DHT22;22752;51.960;5.886;2023-05-07T11:53:48;22.80;99.90
36800;DHT22;22752;51.960;5.886;2023-05-07T11:56:16;22.60;99.90
36800;DHT22;22752;51.960;5.886;2023-05-07T11:58:43;22.60;99.90
36800;DHT22;22752;51.960;5.886;2023-05-07T12:01:10;22.60;99.90
36800;DHT22;22752;51.960;5.886;2023-05-07T12:03:37;22.60;99.90
36800;DHT22;22752;51.960;5.886;2023-05-07T12:06:08;22.60;99.90
36800;DHT22;22752;51.960;5.886;2023-05-07T12:08:37;22.50;99.90
36800;DHT22;22752;51.960;5.886;2023-05-07T12:11:03;22.40;99.90
36800;DHT22;22752;51.960;5.886;2023-05-07T12:13:32;22.30;99.90
36800;DHT22;22752;51.960;5.886;2023-05-07T12:15:57;22.30;99.90
36800;DHT22;22752;51.960;5.886;2023-05-07T12:18:23;22.20;99.90
36800;DHT22;22752;51.960;5.886;2023-05-07T12:20:50;22.10;99.90
36800;DHT22;22752;51.960;5.886;2023-05-07T12:23:17;22.00;99.90
36800;DHT22;22752;51.960;5.886;2023-05-07T12:25:43;22.00;99.90
36800;DHT22;22752;51.960;5.886;2023-05-07T12:28:17;22.10;99.90
36800;DHT22;22752;51.960;5.886;2023-05-07T12:30:44;22.00;99.90
36800;DHT22;22752;51.960;5.886;2023-05-07T12:33:11;21.90;99.90
36800;DHT22;22752;51.960;5.886;2023-05-07T12:35:41;21.90;99.90
36800;DHT22;22752;51.960;5.886;2023-05-07T12:38:12;21.90;99.90
36800;DHT22;22752;51.960;5.886;2023-05-07T12:40:41;21.70;99.90
36800;DHT22;22752;51.960;5.886;2023-05-07T12:43:07;21.40;99.90
36800;DHT22;22752;51.960;5.886;2023-05-07T12:45:40;21.30;99.90
36800;DHT22;22752;51.960;5.886;2023-05-07T12:48:06;21.30;99.90
36800;DHT22;22752;51.960;5.886;2023-05-07T12:50:34;21.40;99.90
36800;DHT22;22752;51.960;5.886;2023-05-07T12:53:00;21.40;99.90
36800;DHT22;22752;51.960;5.886;2023-05-07T12:55:31;21.40;99.90
36800;DHT22;22752;51.960;5.886;2023-05-07T12:58:00;21.30;99.90
36800;DHT22;22752;51.960;5.886;2023-05-07T13:00:38;21.30;99.90
36800;DHT22;22752;51.960;5.886;2023-05-07T13:03:04;21.20;99.90
36800;DHT22;22752;51.960;5.886;2023-05-07T13:05:31;21.30;99.90
36800;DHT22;22752;51.960;5.886;2023-05-07T13:07:58;21.40;99.90
36800;DHT22;22752;51.960;5.886;2023-05-07T13:10:24;21.40;99.90
36800;DHT22;22752;51.960;5.886;2023-05-07T13:12:50;21.40;99.90
36800;DHT22;22752;51.960;5.886;2023-05-07T13:15:17;21.40;99.90
36800;DHT22;22752;51.960;5.886;2023-05-07T13:17:43;21.40;99.90
36800;DHT22;22752;51.960;5.886;2023-05-07T13:20:12;21.40;99.90
36800;DHT22;22752;51.960;5.886;2023-05-07T13:22:41;21.40;99.90
36800;DHT22;22752;51.960;5.886;2023-05-07T13:25:07;21.40;99.90
36800;DHT22;22752;51.960;5.886;2023-05-07T13:27:33;21.50;99.90
36800;DHT22;22752;51.960;5.886;2023-05-07T13:30:03;21.50;99.90
36800;DHT22;22752;51.960;5.886;2023-05-07T13:32:28;21.50;99.90
36800;DHT22;22752;51.960;5.886;2023-05-07T13:34:55;21.50;99.90
36800;DHT22;22752;51.960;5.886;2023-05-07T13:37:21;21.40;99.90
36800;DHT22;22752;51.960;5.886;2023-05-07T13:39:46;21.50;99.90
36800;DHT22;22752;51.960;5.886;2023-05-07T13:42:12;21.50;99.90
36800;DHT22;22752;51.960;5.886;2023-05-07T13:44:37;21.60;99.90
36800;DHT22;22752;51.960;5.886;2023-05-07T13:47:03;21.60;99.90
36800;DHT22;22752;51.960;5.886;2023-05-07T13:49:29;21.70;99.90
36800;DHT22;22752;51.960;5.886;2023-05-07T13:51:55;21.80;99.90
36800;DHT22;22752;51.960;5.886;2023-05-07T13:54:21;21.90;99.90
36800;DHT22;22752;51.960;5.886;2023-05-07T13:56:46;22.10;99.90
36800;DHT22;22752;51.960;5.886;2023-05-07T13:59:12;22.20;99.90
36800;DHT22;22752;51.960;5.886;2023-05-07T14:01:40;22.30;99.90
36800;DHT22;22752;51.960;5.886;2023-05-07T14:04:06;22.40;99.90
36800;DHT22;22752;51.960;5.886;2023-05-07T14:06:31;22.50;99.90
36800;DHT22;22752;51.960;5.886;2023-05-07T14:08:57;22.60;99.90
36800;DHT22;22752;51.960;5.886;2023-05-07T14:11:23;22.50;99.90
36800;DHT22;22752;51.960;5.886;2023-05-07T14:13:49;22.50;99.90
36800;DHT22;22752;51.960;5.886;2023-05-07T14:16:14;22.40;99.90
36800;DHT22;22752;51.960;5.886;2023-05-07T14:18:40;22.50;99.90
36800;DHT22;22752;51.960;5.886;2023-05-07T14:21:06;22.40;99.90
36800;DHT22;22752;51.960;5.886;2023-05-07T14:23:32;22.40;99.90
36800;DHT22;22752;51.960;5.886;2023-05-07T14:25:58;22.40;99.90
36800;DHT22;22752;51.960;5.886;2023-05-07T14:28:23;22.40;99.90
36800;DHT22;22752;51.960;5.886;2023-05-07T14:30:49;22.40;99.90
36800;DHT22;22752;51.960;5.886;2023-05-07T14:33:15;22.40;99.90
36800;DHT22;22752;51.960;5.886;2023-05-07T14:35:41;22.40;99.90
36800;DHT22;22752;51.960;5.886;2023-05-07T14:38:10;22.40;99.90
36800;DHT22;22752;51.960;5.886;2023-05-07T14:40:36;22.40;99.90
36800;DHT22;22752;51.960;5.886;2023-05-07T14:43:01;22.30;99.90
36800;DHT22;22752;51.960;5.886;2023-05-07T14:45:27;22.30;99.90
36800;DHT22;22752;51.960;5.886;2023-05-07T14:47:53;22.30;99.90
36800;DHT22;22752;51.960;5.886;2023-05-07T14:50:18;22.20;99.90
36800;DHT22;22752;51.960;5.886;2023-05-07T14:52:44;22.10;99.90
36800;DHT22;22752;51.960;5.886;2023-05-07T14:55:11;22.00;99.90
36800;DHT22;22752;51.960;5.886;2023-05-07T14:57:37;21.90;99.90
36800;DHT22;22752;51.960;5.886;2023-05-07T15:00:06;21.70;99.90
36800;DHT22;22752;51.960;5.886;2023-05-07T15:02:32;21.50;99.90
36800;DHT22;22752;51.960;5.886;2023-05-07T15:04:59;21.40;99.90
36800;DHT22;22752;51.960;5.886;2023-05-07T15:07:24;21.30;99.90
36800;DHT22;22752;51.960;5.886;2023-05-07T15:09:51;21.30;99.90
36800;DHT22;22752;51.960;5.886;2023-05-07T15:12:17;21.30;99.90
36800;DHT22;22752;51.960;5.886;2023-05-07T15:14:42;21.30;99.90
36800;DHT22;22752;51.960;5.886;2023-05-07T15:17:08;21.40;99.90
36800;DHT22;22752;51.960;5.886;2023-05-07T15:19:34;21.40;99.90
36800;DHT22;22752;51.960;5.886;2023-05-07T15:22:00;21.40;99.90
36800;DHT22;22752;51.960;5.886;2023-05-07T15:24:31;21.60;99.90
36800;DHT22;22752;51.960;5.886;2023-05-07T15:26:57;21.50;99.90
36800;DHT22;22752;51.960;5.886;2023-05-07T15:29:23;21.40;99.90
36800;DHT22;22752;51.960;5.886;2023-05-07T15:31:50;21.30;99.90
36800;DHT22;22752;51.960;5.886;2023-05-07T15:34:17;21.10;99.90
36800;DHT22;22752;51.960;5.886;2023-05-07T15:36:42;20.90;99.90
36800;DHT22;22752;51.960;5.886;2023-05-07T15:39:08;20.70;99.90
36800;DHT22;22752;51.960;5.886;2023-05-07T15:41:35;20.60;99.90